Time;durP1;ratioP1;P1;durP2;ratioP2;P2;SDS_P1;SDS_P2;PMS_P1;PMS_P2;Temp;Humidity;BMP_temperature;BMP_pressure;BME280_temperature;BME280_humidity;BME280_pressure;Samples;Min_cycle;Max_cycle;Signal;HPM_P1;HPM_P2
2022/02/06 00:01:18;;;;;;;17.80;9.83;;;;;;;5.90;87.75;95480.81;4858903;29;20456;-85
2022/02/06 00:03:47;;;;;;;13.20;10.23;;;;;;;5.83;88.92;95476.84;4858996;29;20483;-84
2022/02/06 00:06:13;;;;;;;14.70;9.53;;;;;;;5.74;88.36;95483.41;4865626;29;20968;-85
2022/02/06 00:08:40;;;;;;;20.53;11.70;;;;;;;5.78;88.82;95484.06;4930891;28;20496;-85
2022/02/06 00:11:07;;;;;;;19.93;13.53;;;;;;;5.75;88.72;95484.25;4991752;28;20454;-84
2022/02/06 00:13:34;;;;;;;16.10;10.17;;;;;;;5.68;88.68;95475.94;5046015;28;20464;-84
2022/02/06 00:16:01;;;;;;;17.40;11.13;;;;;;;5.67;89.04;95487.28;5053319;28;20483;-83
2022/02/06 00:18:28;;;;;;;13.07;10.40;;;;;;;5.70;88.71;95489.72;5053481;28;20550;-85
2022/02/06 00:21:01;;;;;;;16.83;11.57;;;;;;;5.70;88.72;95486.28;5053228;28;20778;-86
2022/02/06 00:23:30;;;;;;;20.30;11.93;;;;;;;5.62;88.08;95480.66;5052965;28;20934;-84
2022/02/06 00:26:03;;;;;;;16.27;10.87;;;;;;;5.69;88.38;95495.00;5053337;28;20455;-83
2022/02/06 00:28:39;;;;;;;16.63;12.83;;;;;;;5.67;88.04;95494.25;5053183;28;20886;-85
2022/02/06 00:31:15;;;;;;;15.70;13.10;;;;;;;5.69;88.31;95505.41;5053274;28;20449;-83
2022/02/06 00:33:53;;;;;;;17.30;14.03;;;;;;;5.72;88.52;95507.84;5052660;28;20451;-85
2022/02/06 00:39:06;;;;;;;23.47;12.17;;;;;;;5.76;87.49;95496.34;5052727;28;20531;-84
2022/02/06 00:41:33;;;;;;;20.97;14.07;;;;;;;5.76;87.53;95504.16;5052760;28;20438;-82
2022/02/06 00:44:04;;;;;;;18.03;12.77;;;;;;;5.79;87.34;95507.44;5052649;28;20479;-84
2022/02/06 00:46:32;;;;;;;24.30;13.20;;;;;;;5.74;86.78;95509.44;5052637;28;20475;-85
2022/02/06 00:49:03;;;;;;;21.57;12.93;;;;;;;5.70;87.72;95499.28;5052921;28;20447;-85
2022/02/06 00:51:38;;;;;;;20.77;12.77;;;;;;;5.71;86.95;95503.56;5052936;28;20490;-85
2022/02/06 00:54:05;;;;;;;18.80;13.50;;;;;;;5.70;87.83;95501.88;5052567;28;20938;-85
2022/02/06 00:56:32;;;;;;;18.87;12.90;;;;;;;5.68;87.73;95506.34;5052415;28;20843;-85
2022/02/06 00:58:59;;;;;;;21.43;13.13;;;;;;;5.73;87.37;95497.34;5018029;28;20939;-85
2022/02/06 01:01:26;;;;;;;21.00;13.50;;;;;;;5.72;87.07;95492.22;5052701;28;20455;-84
2022/02/06 01:03:54;;;;;;;21.07;13.77;;;;;;;5.76;86.70;95501.53;5052630;28;20478;-85
2022/02/06 01:06:21;;;;;;;19.83;14.00;;;;;;;5.79;86.29;95497.03;5053072;28;20443;-84
2022/02/06 01:08:50;;;;;;;24.17;14.57;;;;;;;5.73;85.94;95496.50;5056492;28;20781;-85
2022/02/06 01:11:17;;;;;;;19.40;13.50;;;;;;;5.76;86.18;95491.13;5056866;28;20446;-85
2022/02/06 01:13:57;;;;;;;19.10;13.20;;;;;;;5.79;86.17;95481.41;5056744;28;20522;-84
2022/02/06 01:16:28;;;;;;;19.07;13.20;;;;;;;5.71;85.42;95478.38;5056653;28;20485;-86
2022/02/06 01:18:59;;;;;;;20.77;13.53;;;;;;;5.78;85.48;95484.06;5056439;28;20477;-85
2022/02/06 01:21:39;;;;;;;25.07;15.00;;;;;;;5.85;84.64;95495.84;5056490;28;20494;-85
2022/02/06 01:24:12;;;;;;;19.40;14.20;;;;;;;5.96;84.32;95492.66;5056393;28;20516;-85
2022/02/06 01:26:43;;;;;;;17.20;12.93;;;;;;;6.00;83.54;95481.13;5056947;28;20506;-85
2022/02/06 01:29:18;;;;;;;21.87;13.70;;;;;;;5.98;83.07;95478.59;5056127;28;20443;-84
2022/02/06 01:31:53;;;;;;;22.23;14.87;;;;;;;6.04;82.98;95480.00;5056119;28;20812;-85
2022/02/06 01:34:25;;;;;;;17.40;13.47;;;;;;;5.99;82.65;95482.88;5056833;28;20456;-86
2022/02/06 01:37:05;;;;;;;20.73;14.00;;;;;;;5.95;82.38;95481.38;5056189;28;20479;-85
2022/02/06 01:39:50;;;;;;;19.40;13.27;;;;;;;6.03;82.55;95481.78;5056424;28;20463;-85
2022/02/06 01:42:26;;;;;;;25.90;14.10;;;;;;;6.06;81.72;95499.84;5055880;28;20926;-85
2022/02/06 01:45:07;;;;;;;20.00;13.90;;;;;;;6.08;80.97;95503.22;5056084;28;20931;-84
2022/02/06 02:01:31;;;;;;;17.50;12.87;;;;;;;6.39;78.85;95491.84;4994461;28;20489;-85
2022/02/06 02:04:06;;;;;;;21.30;15.03;;;;;;;6.48;78.90;95491.31;4994164;28;20443;-85
2022/02/06 02:07:05;;;;;;;24.63;14.97;;;;;;;6.51;78.56;95490.28;4994075;28;20540;-85
2022/02/06 02:12:34;;;;;;;22.83;15.97;;;;;;;6.56;78.26;95493.44;4993801;28;20445;-85
2022/02/06 02:15:30;;;;;;;23.00;14.83;;;;;;;6.60;78.39;95481.91;4993751;28;20442;-84
2022/02/06 02:18:34;;;;;;;21.73;14.83;;;;;;;6.60;78.54;95474.09;4968486;28;20451;-85
2022/02/06 02:21:33;;;;;;;22.03;13.50;;;;;;;6.57;79.08;95479.47;4993835;28;20450;-85
2022/02/06 02:24:30;;;;;;;22.00;14.80;;;;;;;6.58;78.67;95485.53;4993741;28;20456;-86
2022/02/06 02:27:07;;;;;;;20.20;14.27;;;;;;;6.53;78.93;95484.03;4993949;28;20530;-85
2022/02/06 02:30:13;;;;;;;18.90;15.03;;;;;;;6.48;78.42;95470.44;4993624;28;21205;-85
2022/02/06 02:46:28;;;;;;;19.10;12.87;;;;;;;6.21;79.03;95503.34;5012797;28;20462;-85
2022/02/06 02:48:56;;;;;;;17.50;12.23;;;;;;;6.11;78.50;95487.41;5012859;28;20864;-85
2022/02/06 02:51:26;;;;;;;16.90;12.17;;;;;;;5.93;79.45;95491.06;5012853;28;20472;-85
2022/02/06 02:53:58;;;;;;;19.67;12.43;;;;;;;5.97;79.42;95500.38;5013110;28;20457;-85
2022/02/06 02:56:37;;;;;;;20.70;12.40;;;;;;;5.96;78.33;95492.66;5012733;28;20731;-85
2022/02/06 02:59:11;;;;;;;21.47;12.53;;;;;;;6.01;79.46;95496.66;5012819;28;20450;-84
2022/02/06 03:01:44;;;;;;;19.17;13.33;;;;;;;5.97;78.48;95499.53;5012661;28;20442;-84
2022/02/06 03:04:10;;;;;;;18.73;13.77;;;;;;;5.86;78.67;95503.56;5012574;28;20536;-84
2022/02/06 03:06:37;;;;;;;17.10;12.30;;;;;;;5.83;79.11;95500.28;5012688;28;20454;-85
2022/02/06 03:09:06;;;;;;;20.03;13.90;;;;;;;5.79;78.75;95506.59;5012493;28;20449;-85
2022/02/06 03:11:33;;;;;;;18.93;12.90;;;;;;;5.78;78.56;95504.91;5012464;28;20862;-85
2022/02/06 03:14:05;;;;;;;22.33;14.33;;;;;;;5.75;78.47;95505.06;5012666;28;20894;-85
2022/02/06 03:16:35;;;;;;;19.17;12.67;;;;;;;5.70;78.75;95502.72;5012287;28;20484;-84
2022/02/06 03:19:09;;;;;;;16.40;12.43;;;;;;;5.68;78.83;95503.75;5011973;28;20530;-85
2022/02/06 03:21:37;;;;;;;18.67;12.73;;;;;;;5.63;78.77;95513.56;5012106;28;20927;-85
2022/02/06 03:24:24;;;;;;;18.67;13.00;;;;;;;5.62;78.58;95509.28;5052673;28;20963;-84
2022/02/06 03:26:52;;;;;;;15.80;12.10;;;;;;;5.57;79.32;95517.38;5054006;28;20447;-85
2022/02/06 03:29:21;;;;;;;14.93;11.73;;;;;;;5.51;79.94;95508.13;5054151;28;21016;-85
2022/02/06 03:31:49;;;;;;;15.97;12.87;;;;;;;5.45;79.60;95505.84;5053659;28;20446;-84
2022/02/06 03:34:16;;;;;;;20.90;12.47;;;;;;;5.36;79.95;95495.94;5054171;28;20467;-85
2022/02/06 03:36:44;;;;;;;15.70;11.80;;;;;;;5.33;79.91;95511.72;5053801;28;20491;-85
2022/02/06 03:39:13;;;;;;;18.63;13.73;;;;;;;5.23;80.40;95514.00;5054013;28;20459;-85
2022/02/06 03:41:53;;;;;;;17.70;11.43;;;;;;;5.09;81.64;95510.44;5053583;28;20498;-84
2022/02/06 03:44:26;;;;;;;16.87;11.00;;;;;;;5.04;81.72;95509.84;5053820;28;20459;-85
2022/02/06 03:47:03;;;;;;;18.67;13.20;;;;;;;5.02;81.57;95503.91;5053539;28;20460;-85
2022/02/06 03:49:40;;;;;;;18.97;11.83;;;;;;;4.97;81.63;95507.59;5053786;28;20955;-85
2022/02/06 03:52:07;;;;;;;16.67;11.10;;;;;;;4.96;81.38;95515.47;5053775;28;21033;-83
2022/02/06 03:54:36;;;;;;;18.87;11.87;;;;;;;4.91;80.90;95507.88;5053560;28;20815;-85
2022/02/06 03:57:03;;;;;;;23.77;12.03;;;;;;;4.81;80.84;95501.50;5053330;28;20505;-80
2022/02/06 03:59:31;;;;;;;22.30;14.53;;;;;;;4.79;80.93;95505.94;5053514;28;20470;-85
2022/02/06 04:01:58;;;;;;;19.63;12.57;;;;;;;4.74;82.12;95505.34;5053537;28;21119;-85
2022/02/06 04:04:25;;;;;;;19.50;14.20;;;;;;;4.78;81.94;95504.25;5053554;28;20450;-86
2022/02/06 04:06:53;;;;;;;17.73;12.20;;;;;;;4.73;82.14;95510.63;5053418;28;20452;-85
2022/02/06 04:09:30;;;;;;;17.50;12.77;;;;;;;4.61;81.86;95493.91;5053298;28;20950;-85
2022/02/06 04:12:01;;;;;;;16.37;11.30;;;;;;;4.64;81.56;95510.19;5053305;28;20790;-84
2022/02/06 04:14:31;;;;;;;13.20;11.47;;;;;;;4.59;82.10;95511.31;5019361;28;20464;-85
2022/02/06 04:17:07;;;;;;;18.30;12.30;;;;;;;4.57;81.69;95518.38;5053168;28;20998;-85
2022/02/06 04:19:34;;;;;;;19.17;12.87;;;;;;;4.57;82.17;95513.16;5053275;28;20477;-86
2022/02/06 04:22:00;;;;;;;18.30;11.60;;;;;;;4.51;82.52;95510.88;5053114;28;20449;-84
2022/02/06 04:24:28;;;;;;;18.07;10.67;;;;;;;4.45;81.80;95509.44;5053275;28;20962;-84
2022/02/06 04:26:55;;;;;;;19.50;12.37;;;;;;;4.46;82.51;95510.28;5053065;28;20548;-83
2022/02/06 04:29:24;;;;;;;21.00;12.97;;;;;;;4.45;81.89;95516.41;5054322;28;20464;-86
2022/02/06 04:31:51;;;;;;;14.17;12.43;;;;;;;4.29;81.65;95504.19;5054172;28;20457;-83
2022/02/06 04:34:23;;;;;;;15.43;10.73;;;;;;;4.30;81.65;95520.59;5053912;28;20446;-86
2022/02/06 04:36:56;;;;;;;15.77;11.77;;;;;;;4.31;81.11;95525.72;5053806;28;20474;-86
2022/02/06 04:39:50;;;;;;;15.83;12.47;;;;;;;4.28;81.81;95525.03;5054041;28;20463;-86
2022/02/06 04:42:27;;;;;;;16.53;10.93;;;;;;;4.24;81.92;95532.16;5053274;28;20525;-83
2022/02/06 05:28:30;;;;;;;15.50;10.60;;;;;;;3.76;81.56;95550.09;4988155;28;20198;-85
2022/02/06 05:31:03;;;;;;;18.50;12.17;;;;;;;3.76;81.00;95543.19;4988865;28;20433;-84
2022/02/06 05:33:30;;;;;;;17.50;12.30;;;;;;;3.73;80.50;95551.94;4988795;28;20843;-85
2022/02/06 05:35:57;;;;;;;18.10;12.70;;;;;;;3.68;80.56;95556.50;4988451;28;20449;-85
2022/02/06 05:38:23;;;;;;;19.17;12.83;;;;;;;3.68;81.03;95551.31;4988750;28;20459;-81
2022/02/06 05:40:50;;;;;;;19.27;13.47;;;;;;;3.68;80.96;95556.50;4988749;28;20826;-83
2022/02/06 05:43:17;;;;;;;19.20;10.80;;;;;;;3.60;80.86;95561.22;4972318;28;20932;-80
2022/02/06 05:45:46;;;;;;;16.00;11.67;;;;;;;3.51;80.36;95560.81;4988324;28;20450;-86
2022/02/06 05:48:12;;;;;;;15.23;11.57;;;;;;;3.50;81.69;95562.56;5047509;28;20442;-82
2022/02/06 05:50:41;;;;;;;19.90;11.97;;;;;;;3.50;81.72;95570.34;5049967;28;20443;-78
2022/02/06 05:53:08;;;;;;;18.30;10.87;;;;;;;3.52;81.60;95573.72;5054675;28;20452;-83
2022/02/06 05:55:36;;;;;;;17.57;11.00;;;;;;;3.56;81.56;95572.66;5069436;28;20821;-85
2022/02/06 05:58:02;;;;;;;12.60;9.37;;;;;;;3.98;81.67;95556.78;5062823;28;20434;-84
2022/02/06 06:00:30;;;;;;;12.93;8.43;;;;;;;4.73;78.34;95567.81;5056129;28;20925;-81
2022/02/06 06:03:00;;;;;;;9.77;7.90;;;;;;;5.81;73.48;95585.47;5056660;28;20520;-83
2022/02/06 06:05:27;;;;;;;14.30;9.17;;;;;;;6.61;69.54;95574.00;5056240;28;20464;-84
2022/02/06 06:07:54;;;;;;;10.67;9.40;;;;;;;7.58;65.22;95565.50;5021746;28;20479;-86
2022/02/06 06:10:21;;;;;;;12.30;9.63;;;;;;;8.50;62.23;95563.09;5056296;28;20797;-83
2022/02/06 06:12:48;;;;;;;12.00;9.90;;;;;;;9.15;59.47;95581.38;5056221;28;20443;-85
2022/02/06 06:15:15;;;;;;;16.30;10.83;;;;;;;9.77;56.95;95584.06;5056769;28;20797;-88
2022/02/06 06:17:42;;;;;;;19.87;13.20;;;;;;;10.27;55.22;95577.00;5056340;28;20460;-85
2022/02/06 06:20:15;;;;;;;18.63;11.27;;;;;;;10.74;52.94;95577.94;5055967;28;20442;-86
2022/02/06 06:22:42;;;;;;;13.00;10.10;;;;;;;10.78;51.91;95579.38;5022715;28;20449;-82
2022/02/06 06:25:11;;;;;;;16.00;11.57;;;;;;;10.74;51.49;95588.44;5056395;28;20441;-81
2022/02/06 06:27:38;;;;;;;15.17;11.23;;;;;;;11.01;51.27;95593.44;5055787;28;21005;-82
2022/02/06 06:30:06;;;;;;;11.90;10.40;;;;;;;11.07;52.24;95588.53;5055929;28;20445;-82
2022/02/06 06:32:33;;;;;;;15.40;10.40;;;;;;;10.95;50.14;95594.69;5055466;28;20441;-82
2022/02/06 06:35:02;;;;;;;13.23;10.77;;;;;;;11.15;51.05;95596.66;5055364;28;20452;-82
2022/02/06 06:37:31;;;;;;;14.57;11.13;;;;;;;11.25;50.61;95590.72;5055283;28;20442;-81
2022/02/06 06:39:58;;;;;;;16.47;10.90;;;;;;;11.20;50.60;95582.34;5055793;28;20446;-80
2022/02/06 06:42:25;;;;;;;13.03;11.30;;;;;;;11.34;50.37;95592.66;5055276;28;20436;-80
2022/02/06 06:44:52;;;;;;;16.87;11.90;;;;;;;11.41;48.90;95596.47;5055165;28;20866;-81
2022/02/06 06:47:19;;;;;;;14.97;11.17;;;;;;;11.13;50.19;95582.81;5054875;28;20493;-80
2022/02/06 06:49:46;;;;;;;17.90;12.27;;;;;;;10.51;50.66;95590.97;5055377;28;20630;-80
2022/02/06 06:52:13;;;;;;;19.10;12.27;;;;;;;10.07;52.92;95574.94;5055394;28;20434;-81
2022/02/06 06:54:44;;;;;;;22.23;16.90;;;;;;;9.97;54.51;95585.28;5055296;28;20448;-81
2022/02/06 06:57:17;;;;;;;29.40;22.47;;;;;;;9.97;53.11;95597.53;5054789;28;20448;-83
2022/02/06 07:02:30;;;;;;;24.63;17.73;;;;;;;9.79;53.85;95604.91;4974392;28;20429;-83
2022/02/06 07:04:59;;;;;;;23.63;13.23;;;;;;;9.75;55.09;95611.31;4942844;28;20452;-83
2022/02/06 07:07:26;;;;;;;27.83;15.60;;;;;;;9.67;54.68;95598.75;4973792;28;20488;-83
2022/02/06 07:09:55;;;;;;;18.57;12.73;;;;;;;9.67;55.68;95609.25;4973014;28;20454;-83
2022/02/06 07:12:22;;;;;;;19.80;15.17;;;;;;;9.27;55.78;95606.75;4973799;28;20456;-83
2022/02/06 07:14:50;;;;;;;24.10;16.90;;;;;;;8.74;57.77;95609.50;4973796;28;20448;-82
2022/02/06 07:17:18;;;;;;;26.00;17.13;;;;;;;8.34;59.35;95614.72;4973698;28;20942;-83
2022/02/06 07:19:46;;;;;;;25.10;17.20;;;;;;;8.11;60.29;95618.78;4973906;28;20813;-82
2022/02/06 07:22:16;;;;;;;25.20;18.33;;;;;;;7.68;62.60;95612.78;4973614;28;20439;-84
2022/02/06 07:24:44;;;;;;;24.13;17.57;;;;;;;7.55;63.66;95604.03;4974401;28;20454;-84
2022/02/06 07:27:22;;;;;;;32.30;21.40;;;;;;;7.81;63.92;95610.25;4973829;28;20482;-84
2022/02/06 07:29:50;;;;;;;29.07;18.83;;;;;;;7.67;63.65;95611.09;4973717;28;20446;-83
2022/02/06 07:32:17;;;;;;;26.63;18.43;;;;;;;7.57;64.29;95602.16;4973624;28;20534;-83
2022/02/06 07:34:47;;;;;;;28.97;18.70;;;;;;;7.79;64.34;95615.56;4973538;28;20452;-84
2022/02/06 07:37:14;;;;;;;27.63;18.63;;;;;;;7.84;64.17;95603.06;4973470;28;20427;-82
2022/02/06 07:39:41;;;;;;;29.63;18.77;;;;;;;7.77;63.37;95605.19;5013946;28;20451;-83
2022/02/06 07:42:11;;;;;;;24.13;15.70;;;;;;;7.82;63.27;95606.72;5054437;28;20495;-82
2022/02/06 07:44:42;;;;;;;23.97;15.20;;;;;;;7.27;63.94;95610.94;5053915;28;20996;-80
2022/02/06 07:47:16;;;;;;;22.90;16.20;;;;;;;6.77;65.79;95606.94;5054000;28;20971;-84
2022/02/06 07:49:47;;;;;;;27.47;16.23;;;;;;;6.86;65.86;95612.53;5054002;28;20443;-80
2022/02/06 07:52:14;;;;;;;25.03;16.87;;;;;;;6.80;66.88;95621.56;5054781;28;20445;-80
2022/02/06 07:54:41;;;;;;;21.63;15.70;;;;;;;6.62;66.60;95622.63;5054136;28;20440;-82
2022/02/06 07:57:08;;;;;;;29.43;17.70;;;;;;;6.59;66.76;95621.03;5054142;28;20446;-84
2022/02/06 07:59:36;;;;;;;28.83;16.77;;;;;;;6.58;66.04;95621.13;5053972;28;20448;-84
2022/02/06 08:02:06;;;;;;;27.87;16.40;;;;;;;6.56;65.97;95615.16;5054037;28;20438;-83
2022/02/06 08:04:33;;;;;;;30.00;14.63;;;;;;;6.57;63.98;95609.00;5054027;28;20434;-83
2022/02/06 08:07:00;;;;;;;21.40;12.23;;;;;;;6.67;63.53;95618.84;5053853;28;20874;-84
2022/02/06 08:09:43;;;;;;;20.00;12.63;;;;;;;6.34;62.56;95615.53;5035840;28;20450;-83
2022/02/06 08:12:10;;;;;;;19.00;12.57;;;;;;;6.25;63.96;95619.50;5053819;28;20439;-83
2022/02/06 08:14:51;;;;;;;18.20;12.60;;;;;;;6.15;63.27;95616.59;5053961;28;20814;-83
2022/02/06 08:17:20;;;;;;;21.43;13.40;;;;;;;6.32;62.61;95613.00;5053984;28;20456;-84
2022/02/06 08:19:48;;;;;;;17.77;11.90;;;;;;;6.54;62.26;95612.63;5053717;28;20438;-83
2022/02/06 08:22:14;;;;;;;19.43;12.20;;;;;;;6.58;61.12;95608.91;5053417;28;20438;-81
2022/02/06 08:24:42;;;;;;;17.67;11.17;;;;;;;6.52;60.23;95585.81;5053608;28;20446;-84
2022/02/06 08:27:09;;;;;;;15.50;11.30;;;;;;;6.61;59.93;95606.13;5055594;28;20493;-81
2022/02/06 08:29:38;;;;;;;17.03;12.17;;;;;;;6.68;61.38;95604.88;5053218;28;20812;-82
2022/02/06 08:32:06;;;;;;;17.13;12.40;;;;;;;6.86;61.68;95605.53;5019692;28;20459;-82
2022/02/06 08:34:35;;;;;;;20.43;12.20;;;;;;;6.96;61.26;95598.88;5053400;28;21008;-82
2022/02/06 08:37:03;;;;;;;19.83;13.10;;;;;;;7.13;60.19;95609.13;5053195;28;20438;-81
2022/02/06 08:39:31;;;;;;;20.17;13.43;;;;;;;7.29;60.15;95603.84;5019263;28;20823;-83
2022/02/06 08:41:58;;;;;;;17.83;12.73;;;;;;;7.14;58.91;95594.31;5053636;28;20516;-81
2022/02/06 08:44:25;;;;;;;20.20;11.53;;;;;;;7.19;58.75;95594.88;5053904;28;20473;-87
2022/02/06 08:46:51;;;;;;;16.17;11.70;;;;;;;7.25;59.10;95591.91;5053404;28;20498;-81
2022/02/06 08:49:18;;;;;;;17.73;12.00;;;;;;;7.38;59.31;95587.63;5053517;28;20442;-79
2022/02/06 08:51:48;;;;;;;27.63;14.93;;;;;;;7.56;58.63;95596.09;5053098;28;20454;-86
2022/02/06 08:54:15;;;;;;;16.67;12.90;;;;;;;7.58;58.06;95593.41;5053683;28;20445;-84
2022/02/06 08:56:42;;;;;;;24.67;15.00;;;;;;;7.73;58.44;95587.19;5054232;28;20457;-85
2022/02/06 08:59:10;;;;;;;21.67;14.27;;;;;;;7.87;58.73;95597.66;5053971;28;20458;-86
2022/02/06 09:01:38;;;;;;;27.13;15.37;;;;;;;7.84;59.87;95597.00;5053708;28;20446;-87
2022/02/06 09:04:06;;;;;;;23.07;14.83;;;;;;;7.83;58.13;95597.94;5053843;28;20458;-86
2022/02/06 09:06:35;;;;;;;21.10;14.50;;;;;;;7.66;58.83;95599.81;5053442;28;20434;-85
2022/02/06 09:09:03;;;;;;;23.27;14.37;;;;;;;7.75;58.21;95601.00;5053949;28;20440;-86
2022/02/06 09:11:32;;;;;;;26.37;15.57;;;;;;;7.71;58.35;95607.34;5053724;28;20451;-87
2022/02/06 09:13:59;;;;;;;24.47;14.80;;;;;;;7.78;57.96;95606.88;5054091;28;20455;-87
2022/02/06 09:16:27;;;;;;;23.53;15.63;;;;;;;7.85;57.91;95609.97;5052994;28;20801;-86
2022/02/06 09:18:54;;;;;;;22.57;14.80;;;;;;;7.99;58.11;95603.84;5053968;28;20513;-85
2022/02/06 09:21:23;;;;;;;20.83;14.13;;;;;;;8.22;56.84;95610.25;5053974;28;20495;-86
2022/02/06 09:23:50;;;;;;;26.47;13.27;;;;;;;8.38;56.23;95611.81;5053714;28;20443;-86
2022/02/06 09:26:19;;;;;;;17.57;14.07;;;;;;;7.96;56.36;95611.91;5035563;28;20440;-86
2022/02/06 09:28:46;;;;;;;21.45;15.73;;;;;;;8.33;56.38;95602.53;5052725;28;20454;-84
2022/02/06 09:31:13;;;;;;;22.93;15.30;;;;;;;8.65;55.75;95601.31;5053502;28;20216;-87
2022/02/06 09:36:06;;;;;;;21.83;15.50;;;;;;;8.66;55.46;95584.66;5057773;28;20436;-88
2022/02/06 09:38:33;;;;;;;20.00;15.33;;;;;;;8.84;54.46;95595.72;5057100;28;20641;-87
2022/02/06 09:41:03;;;;;;;25.93;15.70;;;;;;;8.72;54.70;95585.22;5057729;28;20459;-87
2022/02/06 09:43:34;;;;;;;25.07;15.63;;;;;;;8.84;55.78;95587.03;5057022;28;20460;-85
2022/02/06 09:49:23;;;;;;;24.70;15.93;;;;;;;8.69;53.71;95583.66;5056442;28;20428;-83
2022/02/06 09:51:51;;;;;;;25.80;13.57;;;;;;;8.72;54.78;95585.22;5022041;28;20523;-84
2022/02/06 09:54:18;;;;;;;27.93;16.87;;;;;;;8.91;54.88;95578.66;5056832;28;20441;-83
2022/02/06 09:56:50;;;;;;;28.67;14.40;;;;;;;8.96;54.35;95570.47;5056593;28;20530;-85
2022/02/06 09:59:20;;;;;;;22.40;14.87;;;;;;;9.05;54.53;95562.03;5056858;28;20451;-84
2022/02/06 10:01:49;;;;;;;19.10;14.67;;;;;;;9.56;61.96;95562.84;5057272;28;20472;-91
2022/02/06 10:04:20;;;;;;;21.20;14.00;;;;;;;9.21;53.80;95554.78;5056733;28;20484;-85
2022/02/06 10:06:56;;;;;;;27.60;19.27;;;;;;;9.25;53.63;95560.63;5056742;28;20431;-85
2022/02/06 10:09:30;;;;;;;20.80;15.00;;;;;;;8.83;53.10;95548.72;5056167;28;20449;-83
2022/02/06 10:11:58;;;;;;;16.90;13.30;;;;;;;9.04;53.73;95555.13;5056769;28;20871;-85
2022/02/06 10:14:28;;;;;;;26.80;14.63;;;;;;;8.96;53.82;95547.78;5056802;28;20452;-85
2022/02/06 10:16:55;;;;;;;24.40;15.17;;;;;;;9.11;53.49;95540.66;5056398;28;20470;-85
2022/02/06 10:19:22;;;;;;;23.73;13.50;;;;;;;8.94;53.25;95535.72;5055961;28;20449;-86
2022/02/06 10:21:49;;;;;;;23.83;14.23;;;;;;;8.85;52.80;95525.88;5056057;28;20433;-83
2022/02/06 10:24:25;;;;;;;45.70;22.47;;;;;;;8.88;54.56;95531.75;5055950;28;20825;-85
2022/02/06 10:27:05;;;;;;;24.57;14.00;;;;;;;8.83;53.19;95518.16;5056577;28;20526;-85
2022/02/06 10:29:43;;;;;;;24.63;14.07;;;;;;;8.93;53.08;95518.34;5055379;28;20445;-86
2022/02/06 10:32:17;;;;;;;18.53;13.30;;;;;;;8.75;51.88;95514.38;5055014;28;20864;-86
2022/02/06 10:34:44;;;;;;;21.13;13.77;;;;;;;8.74;51.83;95508.31;5054832;28;20463;-85
2022/02/06 10:37:14;;;;;;;18.50;11.70;;;;;;;8.87;51.77;95497.84;5055194;28;20548;-85
2022/02/06 10:39:52;;;;;;;20.47;13.13;;;;;;;8.67;52.75;95497.44;5052386;28;20441;-86
2022/02/06 10:42:21;;;;;;;19.93;14.20;;;;;;;8.77;52.36;95491.56;5054773;28;20456;-86
2022/02/06 10:44:51;;;;;;;19.33;13.03;;;;;;;8.75;52.27;95491.66;5053879;28;21035;-83
2022/02/06 10:47:31;;;;;;;22.20;14.93;;;;;;;8.70;52.04;95480.69;5055182;28;20500;-87
2022/02/06 10:50:07;;;;;;;17.50;13.30;;;;;;;8.80;52.96;95475.66;5056012;28;20513;-87
2022/02/06 10:52:34;;;;;;;22.23;13.90;;;;;;;8.96;52.16;95471.88;5056123;28;20436;-86
2022/02/06 10:55:01;;;;;;;19.00;12.90;;;;;;;8.96;51.59;95479.75;5055703;28;20451;-86
2022/02/06 10:57:29;;;;;;;20.13;13.60;;;;;;;9.00;51.02;95472.50;5055416;28;20454;-88
2022/02/06 11:00:00;;;;;;;19.97;10.47;;;;;;;8.95;51.19;95464.09;5021424;28;20445;-87
2022/02/06 11:02:29;;;;;;;16.37;11.63;;;;;;;8.91;50.36;95453.03;5055897;28;20456;-85
2022/02/06 11:05:07;;;;;;;19.37;11.20;;;;;;;8.69;51.61;95468.53;5055514;28;20440;-86
2022/02/06 11:07:34;;;;;;;16.97;10.47;;;;;;;8.90;52.21;95463.59;5055463;28;20507;-84
2022/02/06 11:10:13;;;;;;;18.80;11.60;;;;;;;8.95;52.32;95458.88;5020381;28;20451;-86
2022/02/06 11:12:41;;;;;;;19.07;11.80;;;;;;;8.77;52.50;95450.53;5055693;28;20488;-87
2022/02/06 11:15:28;;;;;;;17.20;12.30;;;;;;;8.92;52.81;95446.84;5056453;28;20445;-85
2022/02/06 11:18:10;;;;;;;13.93;10.27;;;;;;;9.14;52.44;95442.72;4994807;28;20453;-85
2022/02/06 11:20:38;;;;;;;21.93;11.70;;;;;;;8.96;51.87;95444.84;4993851;28;20460;-86
2022/02/06 11:23:05;;;;;;;26.57;17.80;;;;;;;8.75;53.32;95441.13;4993861;28;20461;-85
2022/02/06 11:25:33;;;;;;;24.00;14.60;;;;;;;8.85;53.11;95432.50;4993796;28;20440;-86
2022/02/06 11:28:03;;;;;;;21.27;13.57;;;;;;;8.62;52.97;95428.03;4993472;28;20876;-87
2022/02/06 11:30:32;;;;;;;28.53;15.17;;;;;;;8.57;52.79;95423.13;4993702;28;20465;-86
2022/02/06 11:32:59;;;;;;;27.37;13.70;;;;;;;8.82;53.11;95416.19;4993827;28;20449;-86
2022/02/06 11:35:28;;;;;;;16.13;10.87;;;;;;;8.90;52.26;95413.88;4994094;28;20453;-85
2022/02/06 11:44:18;;;;;;;29.87;15.23;;;;;;;9.15;51.72;95399.91;5010578;28;20433;-87
2022/02/06 11:46:54;;;;;;;17.47;11.07;;;;;;;9.25;50.40;95400.91;5000955;28;20475;-87
2022/02/06 11:49:22;;;;;;;19.20;13.23;;;;;;;9.13;51.37;95400.00;5005129;28;21031;-86
2022/02/06 11:51:53;;;;;;;19.00;10.67;;;;;;;9.21;49.42;95394.22;5012465;28;20442;-86
2022/02/06 11:54:31;;;;;;;15.70;11.20;;;;;;;9.45;50.15;95392.47;5019861;28;20448;-82
2022/02/06 11:57:22;;;;;;;16.77;10.97;;;;;;;9.54;49.36;95383.09;5053833;28;20436;-87
2022/02/06 12:06:53;;;;;;;14.53;10.90;;;;;;;9.79;48.75;95366.41;5012192;28;20473;-81
2022/02/06 12:09:23;;;;;;;22.93;11.00;;;;;;;9.62;48.15;95370.28;5011935;28;20518;-82
2022/02/06 12:12:10;;;;;;;13.80;10.00;;;;;;;9.66;47.12;95361.25;5010622;28;20842;-82
2022/02/06 12:14:40;;;;;;;15.33;9.60;;;;;;;9.67;48.00;95357.69;5010461;28;20453;-84
2022/02/06 12:17:16;;;;;;;15.53;8.67;;;;;;;9.63;47.23;95348.38;4999309;28;20534;-79
2022/02/06 12:19:43;;;;;;;12.60;10.00;;;;;;;9.77;47.41;95350.81;4990875;28;20456;-83
2022/02/06 12:22:43;;;;;;;15.07;9.20;;;;;;;9.81;47.54;95344.38;4990566;28;20969;-83
2022/02/06 12:25:27;;;;;;;15.47;9.00;;;;;;;9.94;47.93;95339.06;4959700;28;20436;-81
2022/02/06 12:28:26;;;;;;;12.70;8.97;;;;;;;9.77;46.46;95342.94;4992067;28;20522;-82
2022/02/06 12:30:56;;;;;;;14.03;8.53;;;;;;;9.64;47.48;95329.09;4992165;28;20460;-79
2022/02/06 12:33:28;;;;;;;11.40;8.17;;;;;;;9.48;47.28;95336.41;4992451;28;20522;-81
2022/02/06 12:38:44;;;;;;;13.83;8.30;;;;;;;9.63;47.29;95335.28;5053364;28;20786;-83
2022/02/06 12:42:03;;;;;;;9.87;8.60;;;;;;;9.77;47.98;95324.59;5053168;28;20441;-82
2022/02/06 12:44:32;;;;;;;15.37;10.00;;;;;;;9.75;47.20;95326.50;5053663;28;21036;-90
2022/02/06 12:47:01;;;;;;;13.63;8.63;;;;;;;9.48;47.37;95320.69;5053451;28;20496;-83
2022/02/06 12:49:29;;;;;;;11.83;8.50;;;;;;;9.64;47.22;95323.84;5053123;28;20479;-82
2022/02/06 12:51:57;;;;;;;14.40;8.97;;;;;;;9.60;46.97;95323.25;5053424;28;20782;-82
2022/02/06 12:54:26;;;;;;;15.90;9.23;;;;;;;9.53;47.11;95302.84;5053868;28;20443;-81
2022/02/06 12:56:56;;;;;;;9.90;8.63;;;;;;;9.68;47.57;95312.19;5054140;28;20456;-81
2022/02/06 12:59:24;;;;;;;20.70;11.83;;;;;;;9.75;47.28;95304.69;5056812;28;20449;-83
2022/02/06 13:01:53;;;;;;;14.47;9.50;;;;;;;9.84;46.95;95307.47;5061535;28;20442;-85
2022/02/06 13:04:22;;;;;;;11.07;8.13;;;;;;;9.77;46.71;95305.41;5055986;28;20441;-83
2022/02/06 13:06:51;;;;;;;13.07;7.30;;;;;;;9.66;46.77;95303.59;5054081;28;20422;-83
2022/02/06 13:09:22;;;;;;;12.93;6.90;;;;;;;9.73;46.46;95291.72;5056761;28;20472;-79
2022/02/06 13:11:59;;;;;;;17.70;8.70;;;;;;;9.68;45.72;95283.34;5057735;28;20433;-80
2022/02/06 13:14:44;;;;;;;12.53;7.80;;;;;;;9.73;45.71;95278.59;5057373;28;20440;-81
2022/02/06 13:17:21;;;;;;;9.10;8.00;;;;;;;9.88;45.38;95279.25;5057340;28;20437;-82
2022/02/06 13:20:01;;;;;;;10.40;7.57;;;;;;;9.78;45.75;95278.25;5058946;28;20437;-80
2022/02/06 13:22:42;;;;;;;13.73;9.57;;;;;;;9.88;45.52;95266.97;5064067;28;20516;-84
2022/02/06 13:25:33;;;;;;;13.97;8.03;;;;;;;9.87;45.06;95260.06;5061607;28;20883;-81
2022/02/06 13:28:16;;;;;;;14.93;10.17;;;;;;;10.00;45.64;95253.88;5060128;28;20533;-79